sensor_id;sensor_type;location;lat;lon;timestamp;pressure;altitude;pressure_sealevel;temperature;humidity
4410;BME280;2218;51.408;7.208;2023-04-30T00:00:34;100421.22;;;19.24;43.99
4410;BME280;2218;51.408;7.208;2023-04-30T00:03:01;100415.13;;;19.24;43.71
4410;BME280;2218;51.408;7.208;2023-04-30T00:05:28;100424.75;;;19.25;43.87
4410;BME280;2218;51.408;7.208;2023-04-30T00:07:57;100426.50;;;19.24;43.79
4410;BME280;2218;51.408;7.208;2023-04-30T00:10:24;100432.72;;;19.23;43.78
4410;BME280;2218;51.408;7.208;2023-04-30T00:12:50;100421.31;;;19.23;43.80
4410;BME280;2218;51.408;7.208;2023-04-30T00:15:18;100426.59;;;19.23;43.85
4410;BME280;2218;51.408;7.208;2023-04-30T00:17:45;100429.34;;;19.21;43.80
4410;BME280;2218;51.408;7.208;2023-04-30T00:20:12;100426.69;;;19.21;43.67
4410;BME280;2218;51.408;7.208;2023-04-30T00:22:39;100431.97;;;19.21;43.86
4410;BME280;2218;51.408;7.208;2023-04-30T00:25:08;100434.59;;;19.21;43.91
4410;BME280;2218;51.408;7.208;2023-04-30T00:27:35;100429.34;;;19.21;44.08
4410;BME280;2218;51.408;7.208;2023-04-30T00:30:03;100438.19;;;19.20;43.87
4410;BME280;2218;51.408;7.208;2023-04-30T00:32:30;100443.44;;;19.20;43.84
4410;BME280;2218;51.408;7.208;2023-04-30T00:34:57;100439.88;;;19.21;43.76
4410;BME280;2218;51.408;7.208;2023-04-30T00:37:23;100443.44;;;19.20;43.57
4410;BME280;2218;51.408;7.208;2023-04-30T00:39:50;100433.81;;;19.19;43.85
4410;BME280;2218;51.408;7.208;2023-04-30T00:42:19;100438.25;;;19.19;43.84
4410;BME280;2218;51.408;7.208;2023-04-30T00:44:46;100439.09;;;19.19;43.75
4410;BME280;2218;51.408;7.208;2023-04-30T00:47:12;100434.78;;;19.18;43.74
4410;BME280;2218;51.408;7.208;2023-04-30T00:49:39;100439.19;;;19.18;43.91
4410;BME280;2218;51.408;7.208;2023-04-30T00:52:06;100441.81;;;19.18;43.51
4410;BME280;2218;51.408;7.208;2023-04-30T00:54:34;100438.34;;;19.17;43.63
4410;BME280;2218;51.408;7.208;2023-04-30T00:57:02;100434.88;;;19.17;43.76
4410;BME280;2218;51.408;7.208;2023-04-30T00:59:33;100438.34;;;19.17;43.84
4410;BME280;2218;51.408;7.208;2023-04-30T01:02:02;100433.06;;;19.17;43.61
4410;BME280;2218;51.408;7.208;2023-04-30T01:04:29;100444.56;;;19.16;43.54
4410;BME280;2218;51.408;7.208;2023-04-30T01:06:56;100439.28;;;19.16;43.79
4410;BME280;2218;51.408;7.208;2023-04-30T01:09:25;100441.94;;;19.16;43.79
4410;BME280;2218;51.408;7.208;2023-04-30T01:12:03;100434.13;;;19.15;43.78
4410;BME280;2218;51.408;7.208;2023-04-30T01:14:48;100433.25;;;19.14;43.53
4410;BME280;2218;51.408;7.208;2023-04-30T01:17:28;100431.47;;;19.15;43.53
4410;BME280;2218;51.408;7.208;2023-04-30T01:19:59;100434.97;;;19.15;43.86
4410;BME280;2218;51.408;7.208;2023-04-30T01:22:45;100427.97;;;19.14;43.51
4410;BME280;2218;51.408;7.208;2023-04-30T01:25:52;100430.59;;;19.14;43.47
4410;BME280;2218;51.408;7.208;2023-04-30T01:28:27;100430.69;;;19.13;43.60
4410;BME280;2218;51.408;7.208;2023-04-30T01:30:55;100426.28;;;19.13;43.68
4410;BME280;2218;51.408;7.208;2023-04-30T01:33:23;100424.59;;;19.12;43.52
4410;BME280;2218;51.408;7.208;2023-04-30T01:36:19;100421.94;;;19.12;43.55
4410;BME280;2218;51.408;7.208;2023-04-30T01:39:05;100428.06;;;19.13;43.35
4410;BME280;2218;51.408;7.208;2023-04-30T01:41:46;100428.16;;;19.11;43.58
4410;BME280;2218;51.408;7.208;2023-04-30T01:44:40;100426.47;;;19.10;43.42
4410;BME280;2218;51.408;7.208;2023-04-30T01:47:19;100427.31;;;19.10;43.51
4410;BME280;2218;51.408;7.208;2023-04-30T01:49:57;100430.91;;;19.09;43.62
4410;BME280;2218;51.408;7.208;2023-04-30T01:52:35;100431.75;;;19.10;43.47
4410;BME280;2218;51.408;7.208;2023-04-30T01:55:11;100431.66;;;19.11;43.41
4410;BME280;2218;51.408;7.208;2023-04-30T01:57:42;100429.16;;;19.08;43.50
4410;BME280;2218;51.408;7.208;2023-04-30T02:00:14;100433.59;;;19.08;43.47
4410;BME280;2218;51.408;7.208;2023-04-30T02:02:42;100431.81;;;19.08;43.71
4410;BME280;2218;51.408;7.208;2023-04-30T02:05:09;100430.97;;;19.08;43.43
4410;BME280;2218;51.408;7.208;2023-04-30T02:07:39;100430.97;;;19.08;43.50
4410;BME280;2218;51.408;7.208;2023-04-30T02:10:09;100433.59;;;19.08;43.54
4410;BME280;2218;51.408;7.208;2023-04-30T02:12:37;100428.41;;;19.06;43.49
4410;BME280;2218;51.408;7.208;2023-04-30T02:15:05;100432.84;;;19.06;43.59
4410;BME280;2218;51.408;7.208;2023-04-30T02:17:34;100435.47;;;19.06;43.36
4410;BME280;2218;51.408;7.208;2023-04-30T02:20:01;100436.31;;;19.06;43.65
4410;BME280;2218;51.408;7.208;2023-04-30T02:22:29;100435.47;;;19.06;43.40
4410;BME280;2218;51.408;7.208;2023-04-30T02:24:56;100435.47;;;19.06;43.42
4410;BME280;2218;51.408;7.208;2023-04-30T02:27:25;100439.06;;;19.05;43.42
4410;BME280;2218;51.408;7.208;2023-04-30T02:29:52;100440.75;;;19.06;43.48
4410;BME280;2218;51.408;7.208;2023-04-30T02:32:19;100444.31;;;19.05;43.60
4410;BME280;2218;51.408;7.208;2023-04-30T02:34:48;100439.06;;;19.05;43.35
4410;BME280;2218;51.408;7.208;2023-04-30T02:37:15;100439.06;;;19.05;43.37
4410;BME280;2218;51.408;7.208;2023-04-30T02:39:42;100439.06;;;19.05;43.54
4410;BME280;2218;51.408;7.208;2023-04-30T02:42:09;100446.03;;;19.06;43.56
4410;BME280;2218;51.408;7.208;2023-04-30T02:44:36;100440.75;;;19.06;43.33
4410;BME280;2218;51.408;7.208;2023-04-30T02:47:03;100446.03;;;19.06;43.58
4410;BME280;2218;51.408;7.208;2023-04-30T02:49:31;100444.31;;;19.05;43.50
4410;BME280;2218;51.408;7.208;2023-04-30T02:51:59;100440.75;;;19.06;43.52
4410;BME280;2218;51.408;7.208;2023-04-30T02:54:26;100439.06;;;19.05;43.26
4410;BME280;2218;51.408;7.208;2023-04-30T02:56:53;100435.53;;;19.04;43.43
4410;BME280;2218;51.408;7.208;2023-04-30T02:59:21;100432.06;;;19.04;43.27
4410;BME280;2218;51.408;7.208;2023-04-30T03:01:48;100437.34;;;19.04;43.37
4410;BME280;2218;51.408;7.208;2023-04-30T03:04:15;100438.19;;;19.04;43.25
4410;BME280;2218;51.408;7.208;2023-04-30T03:06:42;100443.44;;;19.04;43.49
4410;BME280;2218;51.408;7.208;2023-04-30T03:09:11;100439.06;;;19.05;43.37
4410;BME280;2218;51.408;7.208;2023-04-30T03:11:39;100433.78;;;19.05;43.40
4410;BME280;2218;51.408;7.208;2023-04-30T03:14:06;100436.44;;;19.05;43.37
4410;BME280;2218;51.408;7.208;2023-04-30T03:16:33;100430.38;;;19.03;43.45
4410;BME280;2218;51.408;7.208;2023-04-30T03:19:01;100429.44;;;19.04;43.47
4410;BME280;2218;51.408;7.208;2023-04-30T03:21:28;100433.78;;;19.05;43.17
4410;BME280;2218;51.408;7.208;2023-04-30T03:23:55;100432.06;;;19.04;43.34
4410;BME280;2218;51.408;7.208;2023-04-30T03:26:24;100426.78;;;19.04;43.22
4410;BME280;2218;51.408;7.208;2023-04-30T03:28:51;100433.00;;;19.03;43.36
4410;BME280;2218;51.408;7.208;2023-04-30T03:31:20;100432.06;;;19.04;43.26
4410;BME280;2218;51.408;7.208;2023-04-30T03:33:47;100428.59;;;19.03;43.33
4410;BME280;2218;51.408;7.208;2023-04-30T03:36:14;100425.94;;;19.03;43.31
4410;BME280;2218;51.408;7.208;2023-04-30T03:38:41;100427.75;;;19.03;43.44
4410;BME280;2218;51.408;7.208;2023-04-30T03:41:08;100425.94;;;19.03;43.39
4410;BME280;2218;51.408;7.208;2023-04-30T03:43:37;100430.38;;;19.03;43.37
4410;BME280;2218;51.408;7.208;2023-04-30T03:46:04;100426.78;;;19.04;43.37
4410;BME280;2218;51.408;7.208;2023-04-30T03:48:31;100430.38;;;19.03;43.44
4410;BME280;2218;51.408;7.208;2023-04-30T03:50:58;100419.84;;;19.03;43.10
4410;BME280;2218;51.408;7.208;2023-04-30T03:53:25;100424.25;;;19.02;43.31
4410;BME280;2218;51.408;7.208;2023-04-30T03:55:52;100425.09;;;19.03;43.44
4410;BME280;2218;51.408;7.208;2023-04-30T03:58:20;100428.59;;;19.03;43.43
4410;BME280;2218;51.408;7.208;2023-04-30T04:00:49;100426.91;;;19.02;43.02
4410;BME280;2218;51.408;7.208;2023-04-30T04:03:16;100430.38;;;19.03;43.31
4410;BME280;2218;51.408;7.208;2023-04-30T04:05:43;100435.66;;;19.03;43.10
4410;BME280;2218;51.408;7.208;2023-04-30T04:08:10;100433.00;;;19.03;43.37
4410;BME280;2218;51.408;7.208;2023-04-30T04:10:38;100434.69;;;19.04;43.18
4410;BME280;2218;51.408;7.208;2023-04-30T04:13:05;100433.94;;;19.02;43.20
4410;BME280;2218;51.408;7.208;2023-04-30T04:15:33;100440.06;;;19.02;43.17
4410;BME280;2218;51.408;7.208;2023-04-30T04:18:02;100442.59;;;19.04;43.14
4410;BME280;2218;51.408;7.208;2023-04-30T04:20:31;100443.66;;;19.01;43.14
4410;BME280;2218;51.408;7.208;2023-04-30T04:22:58;100454.09;;;19.03;43.33
4410;BME280;2218;51.408;7.208;2023-04-30T04:25:25;100445.34;;;19.02;43.03
4410;BME280;2218;51.408;7.208;2023-04-30T04:27:53;100446.19;;;19.03;42.88
4410;BME280;2218;51.408;7.208;2023-04-30T04:30:20;100453.16;;;19.04;43.18
4410;BME280;2218;51.408;7.208;2023-04-30T04:32:49;100453.16;;;19.04;43.00
4410;BME280;2218;51.408;7.208;2023-04-30T04:35:19;100447.88;;;19.04;43.10
4410;BME280;2218;51.408;7.208;2023-04-30T04:37:47;100443.56;;;19.03;43.14
4410;BME280;2218;51.408;7.208;2023-04-30T04:40:15;100447.88;;;19.04;42.87
4410;BME280;2218;51.408;7.208;2023-04-30T04:42:42;100446.19;;;19.03;42.89
4410;BME280;2218;51.408;7.208;2023-04-30T04:45:11;100448.72;;;19.04;42.91
4410;BME280;2218;51.408;7.208;2023-04-30T04:47:38;100453.16;;;19.04;43.16
4410;BME280;2218;51.408;7.208;2023-04-30T04:50:06;100443.44;;;19.04;42.88
4410;BME280;2218;51.408;7.208;2023-04-30T04:52:34;100450.50;;;19.04;43.00
4410;BME280;2218;51.408;7.208;2023-04-30T04:55:02;100449.59;;;19.05;43.02
4410;BME280;2218;51.408;7.208;2023-04-30T04:57:29;100456.56;;;19.06;43.12
4410;BME280;2218;51.408;7.208;2023-04-30T04:59:56;100452.13;;;19.06;42.78
4410;BME280;2218;51.408;7.208;2023-04-30T05:02:23;100453.94;;;19.06;42.79
4410;BME280;2218;51.408;7.208;2023-04-30T05:04:51;100462.69;;;19.06;42.95
4410;BME280;2218;51.408;7.208;2023-04-30T05:07:18;100465.31;;;19.06;42.84
4410;BME280;2218;51.408;7.208;2023-04-30T05:09:46;100471.31;;;19.08;42.95
4410;BME280;2218;51.408;7.208;2023-04-30T05:12:14;100473.13;;;19.08;42.98
4410;BME280;2218;51.408;7.208;2023-04-30T05:14:41;100466.91;;;19.09;42.93
4410;BME280;2218;51.408;7.208;2023-04-30T05:17:09;100466.06;;;19.08;42.60
4410;BME280;2218;51.408;7.208;2023-04-30T05:19:36;100469.53;;;19.09;42.91
4410;BME280;2218;51.408;7.208;2023-04-30T05:22:03;100473.91;;;19.10;42.68
4410;BME280;2218;51.408;7.208;2023-04-30T05:24:30;100477.28;;;19.12;42.92
4410;BME280;2218;51.408;7.208;2023-04-30T05:26:58;100472.75;;;19.14;42.60
4410;BME280;2218;51.408;7.208;2023-04-30T05:29:27;100476.75;;;19.21;42.45
4410;BME280;2218;51.408;7.208;2023-04-30T05:31:54;100477.25;;;19.28;42.53
4410;BME280;2218;51.408;7.208;2023-04-30T05:34:21;100472.50;;;19.34;42.18
4410;BME280;2218;51.408;7.208;2023-04-30T05:36:48;100482.69;;;19.41;42.13
4410;BME280;2218;51.408;7.208;2023-04-30T05:39:15;100478.94;;;19.45;42.27
4410;BME280;2218;51.408;7.208;2023-04-30T05:41:42;100481.22;;;19.51;41.94
4410;BME280;2218;51.408;7.208;2023-04-30T05:44:11;100482.75;;;19.55;41.62
4410;BME280;2218;51.408;7.208;2023-04-30T05:46:38;100488.63;;;19.60;41.98
4410;BME280;2218;51.408;7.208;2023-04-30T05:49:04;100484.84;;;19.64;42.05
4410;BME280;2218;51.408;7.208;2023-04-30T05:51:31;100487.16;;;19.70;41.87
4410;BME280;2218;51.408;7.208;2023-04-30T05:53:58;100487.72;;;19.75;42.08
4410;BME280;2218;51.408;7.208;2023-04-30T05:56:25;100494.53;;;19.79;41.94
4410;BME280;2218;51.408;7.208;2023-04-30T05:58:53;100491.69;;;19.82;41.69
4410;BME280;2218;51.408;7.208;2023-04-30T06:01:21;100492.38;;;19.86;41.74
4410;BME280;2218;51.408;7.208;2023-04-30T06:03:48;100493.94;;;19.88;41.67
4410;BME280;2218;51.408;7.208;2023-04-30T06:06:15;100496.31;;;19.93;41.74
4410;BME280;2218;51.408;7.208;2023-04-30T06:08:42;100489.06;;;19.97;41.66
4410;BME280;2218;51.408;7.208;2023-04-30T06:11:11;100491.63;;;19.98;41.74
4410;BME280;2218;51.408;7.208;2023-04-30T06:13:38;100489.66;;;20.02;41.85
4410;BME280;2218;51.408;7.208;2023-04-30T06:16:06;100494.75;;;20.05;41.69
4410;BME280;2218;51.408;7.208;2023-04-30T06:18:35;100489.28;;;20.08;41.63
4410;BME280;2218;51.408;7.208;2023-04-30T06:21:02;100497.03;;;20.11;41.70
4410;BME280;2218;51.408;7.208;2023-04-30T06:23:29;100494.19;;;20.14;41.69
4410;BME280;2218;51.408;7.208;2023-04-30T06:25:56;100484.38;;;20.16;41.52
4410;BME280;2218;51.408;7.208;2023-04-30T06:28:23;100488.72;;;20.17;41.61
4410;BME280;2218;51.408;7.208;2023-04-30T06:30:50;100484.13;;;20.21;41.90
4410;BME280;2218;51.408;7.208;2023-04-30T06:33:19;100480.41;;;20.23;41.58
4410;BME280;2218;51.408;7.208;2023-04-30T06:35:47;100483.84;;;20.25;41.50
4410;BME280;2218;51.408;7.208;2023-04-30T06:38:15;100487.22;;;20.27;41.40
4410;BME280;2218;51.408;7.208;2023-04-30T06:40:43;100484.56;;;20.27;41.57
4410;BME280;2218;51.408;7.208;2023-04-30T06:43:10;100479.22;;;20.29;41.43
4410;BME280;2218;51.408;7.208;2023-04-30T06:45:38;100481.75;;;20.30;41.41
4410;BME280;2218;51.408;7.208;2023-04-30T06:48:05;100481.75;;;20.30;41.42
4410;BME280;2218;51.408;7.208;2023-04-30T06:50:32;100491.38;;;20.31;41.43
4410;BME280;2218;51.408;7.208;2023-04-30T06:53:00;100482.50;;;20.32;41.34
4410;BME280;2218;51.408;7.208;2023-04-30T06:55:27;100482.50;;;20.32;41.38
4410;BME280;2218;51.408;7.208;2023-04-30T06:57:54;100485.13;;;20.32;41.46
4410;BME280;2218;51.408;7.208;2023-04-30T07:00:22;100493.06;;;20.32;41.22
4410;BME280;2218;51.408;7.208;2023-04-30T07:02:49;100483.34;;;20.33;41.27
4410;BME280;2218;51.408;7.208;2023-04-30T07:05:17;100485.13;;;20.32;41.17
4410;BME280;2218;51.408;7.208;2023-04-30T07:07:44;100483.44;;;20.31;41.25
4410;BME280;2218;51.408;7.208;2023-04-30T07:10:12;100482.50;;;20.32;41.37
4410;BME280;2218;51.408;7.208;2023-04-30T07:12:39;100478.16;;;20.31;41.26
4410;BME280;2218;51.408;7.208;2023-04-30T07:15:07;100475.53;;;20.31;41.37
4410;BME280;2218;51.408;7.208;2023-04-30T07:17:34;100477.31;;;20.31;41.22
4410;BME280;2218;51.408;7.208;2023-04-30T07:20:02;100468.56;;;20.30;41.28
4410;BME280;2218;51.408;7.208;2023-04-30T07:22:30;100476.47;;;20.30;41.19
4410;BME280;2218;51.408;7.208;2023-04-30T07:24:57;100478.28;;;20.30;41.15
4410;BME280;2218;51.408;7.208;2023-04-30T07:27:25;100475.63;;;20.30;41.31
4410;BME280;2218;51.408;7.208;2023-04-30T07:29:53;100473.00;;;20.30;41.31
4410;BME280;2218;51.408;7.208;2023-04-30T07:32:20;100473.00;;;20.30;41.24
4410;BME280;2218;51.408;7.208;2023-04-30T07:34:47;100477.44;;;20.29;41.12
4410;BME280;2218;51.408;7.208;2023-04-30T07:37:14;100473.06;;;20.28;41.33
4410;BME280;2218;51.408;7.208;2023-04-30T07:39:41;100474.03;;;20.27;41.25
4410;BME280;2218;51.408;7.208;2023-04-30T07:42:08;100474.88;;;20.28;41.27
4410;BME280;2218;51.408;7.208;2023-04-30T07:44:36;100472.31;;;20.26;41.23
4410;BME280;2218;51.408;7.208;2023-04-30T07:47:04;100476.66;;;20.27;41.33
4410;BME280;2218;51.408;7.208;2023-04-30T07:49:31;100469.69;;;20.26;41.20
4410;BME280;2218;51.408;7.208;2023-04-30T07:51:58;100467.03;;;20.26;41.22
4410;BME280;2218;51.408;7.208;2023-04-30T07:54:26;100471.47;;;20.26;41.18
4410;BME280;2218;51.408;7.208;2023-04-30T07:56:53;100476.75;;;20.26;41.19
4410;BME280;2218;51.408;7.208;2023-04-30T07:59:20;100476.88;;;20.24;41.18
4410;BME280;2218;51.408;7.208;2023-04-30T08:01:50;100484.78;;;20.24;41.25
4410;BME280;2218;51.408;7.208;2023-04-30T08:04:17;100481.38;;;20.22;41.24
4410;BME280;2218;51.408;7.208;2023-04-30T08:06:44;100481.38;;;20.22;41.46
4410;BME280;2218;51.408;7.208;2023-04-30T08:09:11;100482.31;;;20.21;41.50
4410;BME280;2218;51.408;7.208;2023-04-30T08:11:38;100488.53;;;20.20;41.40
4410;BME280;2218;51.408;7.208;2023-04-30T08:14:05;100488.53;;;20.20;41.56
4410;BME280;2218;51.408;7.208;2023-04-30T08:16:32;100485.06;;;20.20;41.54
4410;BME280;2218;51.408;7.208;2023-04-30T08:19:01;100484.22;;;20.19;41.61
4410;BME280;2218;51.408;7.208;2023-04-30T08:21:29;100485.13;;;20.18;41.73
4410;BME280;2218;51.408;7.208;2023-04-30T08:23:56;100481.66;;;20.18;41.59
4410;BME280;2218;51.408;7.208;2023-04-30T08:26:24;100478.16;;;20.17;41.40
4410;BME280;2218;51.408;7.208;2023-04-30T08:28:51;100481.75;;;20.16;41.65
4410;BME280;2218;51.408;7.208;2023-04-30T08:31:18;100481.75;;;20.16;41.61
4410;BME280;2218;51.408;7.208;2023-04-30T08:33:45;100485.34;;;20.15;41.55
4410;BME280;2218;51.408;7.208;2023-04-30T08:36:14;100487.13;;;20.14;41.65
4410;BME280;2218;51.408;7.208;2023-04-30T08:38:41;100480.06;;;20.15;41.84
4410;BME280;2218;51.408;7.208;2023-04-30T08:41:10;100488.03;;;20.13;41.78
4410;BME280;2218;51.408;7.208;2023-04-30T08:43:38;100489.78;;;20.14;41.70
4410;BME280;2218;51.408;7.208;2023-04-30T08:46:06;100488.03;;;20.13;41.86
4410;BME280;2218;51.408;7.208;2023-04-30T08:48:33;100488.94;;;20.14;41.72
4410;BME280;2218;51.408;7.208;2023-04-30T08:51:01;100483.66;;;20.14;41.83
4410;BME280;2218;51.408;7.208;2023-04-30T08:53:34;100484.56;;;20.13;42.06
4410;BME280;2218;51.408;7.208;2023-04-30T08:56:02;100480.22;;;20.12;41.78
4410;BME280;2218;51.408;7.208;2023-04-30T08:58:29;100484.66;;;20.11;41.83
4410;BME280;2218;51.408;7.208;2023-04-30T09:00:57;100473.25;;;20.11;41.92
4410;BME280;2218;51.408;7.208;2023-04-30T09:03:25;100476.84;;;20.10;41.90
4410;BME280;2218;51.408;7.208;2023-04-30T09:05:53;100471.56;;;20.10;41.92
4410;BME280;2218;51.408;7.208;2023-04-30T09:08:44;100476.94;;;20.08;42.06
4410;BME280;2218;51.408;7.208;2023-04-30T09:11:21;100478.72;;;20.08;41.96
4410;BME280;2218;51.408;7.208;2023-04-30T09:13:49;100481.34;;;20.08;42.09
4410;BME280;2218;51.408;7.208;2023-04-30T09:16:18;100478.72;;;20.08;41.93
4410;BME280;2218;51.408;7.208;2023-04-30T09:18:45;100479.56;;;20.08;42.01
4410;BME280;2218;51.408;7.208;2023-04-30T09:21:13;100471.75;;;20.07;42.02
4410;BME280;2218;51.408;7.208;2023-04-30T09:23:58;100474.38;;;20.07;42.18
4410;BME280;2218;51.408;7.208;2023-04-30T09:26:31;100476.19;;;20.06;42.07
4410;BME280;2218;51.408;7.208;2023-04-30T09:28:59;100470.06;;;20.06;42.10
4410;BME280;2218;51.408;7.208;2023-04-30T09:31:26;100466.56;;;20.05;42.12
4410;BME280;2218;51.408;7.208;2023-04-30T09:33:53;100463.09;;;20.05;42.10
4410;BME280;2218;51.408;7.208;2023-04-30T09:36:20;100467.41;;;20.06;42.19
4410;BME280;2218;51.408;7.208;2023-04-30T09:38:47;100468.38;;;20.05;42.16
4410;BME280;2218;51.408;7.208;2023-04-30T09:41:25;100464.00;;;20.04;42.17
4410;BME280;2218;51.408;7.208;2023-04-30T09:43:54;100460.53;;;20.03;42.28
4410;BME280;2218;51.408;7.208;2023-04-30T09:46:30;100463.16;;;20.03;42.18
4410;BME280;2218;51.408;7.208;2023-04-30T09:48:59;100461.38;;;20.04;42.26
4410;BME280;2218;51.408;7.208;2023-04-30T09:51:27;100460.53;;;20.03;42.26
4410;BME280;2218;51.408;7.208;2023-04-30T09:53:55;100463.25;;;20.02;42.21
4410;BME280;2218;51.408;7.208;2023-04-30T09:56:25;100447.44;;;20.02;42.42
4410;BME280;2218;51.408;7.208;2023-04-30T09:58:54;100448.38;;;20.01;42.27
4410;BME280;2218;51.408;7.208;2023-04-30T10:01:25;100448.38;;;20.01;42.41
4410;BME280;2218;51.408;7.208;2023-04-30T10:03:52;100438.78;;;20.00;42.42
4410;BME280;2218;51.408;7.208;2023-04-30T10:06:20;100437.06;;;19.99;42.43
4410;BME280;2218;51.408;7.208;2023-04-30T10:08:52;100441.47;;;19.98;42.52
4410;BME280;2218;51.408;7.208;2023-04-30T10:11:27;100441.47;;;19.98;42.46
4410;BME280;2218;51.408;7.208;2023-04-30T10:14:00;100437.06;;;19.99;42.25
4410;BME280;2218;51.408;7.208;2023-04-30T10:16:34;100435.38;;;19.98;42.41
4410;BME280;2218;51.408;7.208;2023-04-30T10:19:11;100435.38;;;19.98;42.40
4410;BME280;2218;51.408;7.208;2023-04-30T10:21:41;100438.00;;;19.98;42.44
4410;BME280;2218;51.408;7.208;2023-04-30T10:24:11;100440.63;;;19.98;42.50
4410;BME280;2218;51.408;7.208;2023-04-30T10:26:40;100423.97;;;19.97;42.57
4410;BME280;2218;51.408;7.208;2023-04-30T10:29:08;100430.09;;;19.98;42.44
4410;BME280;2218;51.408;7.208;2023-04-30T10:31:36;100427.56;;;19.96;42.49
4410;BME280;2218;51.408;7.208;2023-04-30T10:34:32;100422.28;;;19.96;42.42
4410;BME280;2218;51.408;7.208;2023-04-30T10:37:07;100416.16;;;19.96;42.38
4410;BME280;2218;51.408;7.208;2023-04-30T10:39:37;100413.50;;;19.96;42.54
4410;BME280;2218;51.408;7.208;2023-04-30T10:42:08;100416.16;;;19.96;42.54
4410;BME280;2218;51.408;7.208;2023-04-30T10:44:36;100417.00;;;19.96;42.57
4410;BME280;2218;51.408;7.208;2023-04-30T10:47:05;100417.84;;;19.97;42.58
4410;BME280;2218;51.408;7.208;2023-04-30T10:49:33;100408.25;;;19.96;42.48
4410;BME280;2218;51.408;7.208;2023-04-30T10:52:01;100408.25;;;19.96;42.64
4410;BME280;2218;51.408;7.208;2023-04-30T10:54:31;100404.75;;;19.95;42.32
4410;BME280;2218;51.408;7.208;2023-04-30T10:57:12;100394.19;;;19.95;42.59
4410;BME280;2218;51.408;7.208;2023-04-30T10:59:42;100393.34;;;19.95;42.41
4410;BME280;2218;51.408;7.208;2023-04-30T11:02:15;100390.72;;;19.95;42.49
4410;BME280;2218;51.408;7.208;2023-04-30T11:05:08;100389.88;;;19.94;42.64
4410;BME280;2218;51.408;7.208;2023-04-30T11:07:36;100389.88;;;19.94;42.51
4410;BME280;2218;51.408;7.208;2023-04-30T11:10:07;100383.72;;;19.94;42.59
4410;BME280;2218;51.408;7.208;2023-04-30T11:12:40;100376.69;;;19.94;42.47
4410;BME280;2218;51.408;7.208;2023-04-30T11:15:14;100383.66;;;19.95;42.45
4410;BME280;2218;51.408;7.208;2023-04-30T11:17:44;100382.81;;;19.95;42.34
4410;BME280;2218;51.408;7.208;2023-04-30T11:20:12;100378.44;;;19.94;42.42
4410;BME280;2218;51.408;7.208;2023-04-30T11:22:40;100377.53;;;19.95;42.43
4410;BME280;2218;51.408;7.208;2023-04-30T11:25:09;100377.53;;;19.95;42.38
4410;BME280;2218;51.408;7.208;2023-04-30T11:27:41;100377.53;;;19.95;42.51
4410;BME280;2218;51.408;7.208;2023-04-30T11:30:12;100376.69;;;19.94;42.43
4410;BME280;2218;51.408;7.208;2023-04-30T11:32:42;100373.09;;;19.95;42.57
4410;BME280;2218;51.408;7.208;2023-04-30T11:35:10;100369.63;;;19.95;42.30
4410;BME280;2218;51.408;7.208;2023-04-30T11:37:39;100372.25;;;19.95;42.59
4410;BME280;2218;51.408;7.208;2023-04-30T11:40:10;100372.25;;;19.95;42.35
4410;BME280;2218;51.408;7.208;2023-04-30T11:42:41;100366.97;;;19.95;42.39
4410;BME280;2218;51.408;7.208;2023-04-30T11:45:10;100360.84;;;19.94;42.46
4410;BME280;2218;51.408;7.208;2023-04-30T11:47:42;100359.06;;;19.95;42.27
4410;BME280;2218;51.408;7.208;2023-04-30T11:50:13;100357.34;;;19.94;42.43
4410;BME280;2218;51.408;7.208;2023-04-30T11:52:41;100360.84;;;19.94;42.32
4410;BME280;2218;51.408;7.208;2023-04-30T11:55:16;100359.97;;;19.94;42.32
4410;BME280;2218;51.408;7.208;2023-04-30T11:57:47;100359.97;;;19.94;42.41
4410;BME280;2218;51.408;7.208;2023-04-30T12:00:17;100356.50;;;19.93;42.50
4410;BME280;2218;51.408;7.208;2023-04-30T12:02:47;100356.41;;;19.95;42.51
4410;BME280;2218;51.408;7.208;2023-04-30T12:05:17;100360.84;;;19.94;42.46
4410;BME280;2218;51.408;7.208;2023-04-30T12:07:49;100353.84;;;19.93;42.43
4410;BME280;2218;51.408;7.208;2023-04-30T12:10:19;100356.41;;;19.95;42.59
4410;BME280;2218;51.408;7.208;2023-04-30T12:12:49;100354.69;;;19.94;42.27
4410;BME280;2218;51.408;7.208;2023-04-30T12:15:18;100351.16;;;19.95;42.48
4410;BME280;2218;51.408;7.208;2023-04-30T12:17:48;100350.19;;;19.96;42.40
4410;BME280;2218;51.408;7.208;2023-04-30T12:20:15;100352.00;;;19.95;42.50
4410;BME280;2218;51.408;7.208;2023-04-30T12:22:44;100343.22;;;19.95;42.33
4410;BME280;2218;51.408;7.208;2023-04-30T12:25:14;100348.50;;;19.95;42.46
4410;BME280;2218;51.408;7.208;2023-04-30T12:27:47;100340.59;;;19.95;42.60
4410;BME280;2218;51.408;7.208;2023-04-30T12:30:18;100340.59;;;19.95;42.40
4410;BME280;2218;51.408;7.208;2023-04-30T12:32:49;100344.91;;;19.96;42.39
4410;BME280;2218;51.408;7.208;2023-04-30T12:35:18;100337.97;;;19.95;42.64
4410;BME280;2218;51.408;7.208;2023-04-30T12:37:48;100341.44;;;19.95;42.30
4410;BME280;2218;51.408;7.208;2023-04-30T12:40:18;100330.03;;;19.95;42.54
4410;BME280;2218;51.408;7.208;2023-04-30T12:42:47;100330.78;;;19.97;42.38
4410;BME280;2218;51.408;7.208;2023-04-30T12:45:42;100331.72;;;19.96;42.41
4410;BME280;2218;51.408;7.208;2023-04-30T12:48:10;100322.03;;;19.96;42.47
4410;BME280;2218;51.408;7.208;2023-04-30T12:50:37;100329.09;;;19.96;42.39
4410;BME280;2218;51.408;7.208;2023-04-30T12:53:05;100327.28;;;19.96;42.34
4410;BME280;2218;51.408;7.208;2023-04-30T12:55:33;100324.66;;;19.96;42.25
4410;BME280;2218;51.408;7.208;2023-04-30T12:58:08;100322.88;;;19.97;42.47
4410;BME280;2218;51.408;7.208;2023-04-30T13:00:47;100322.88;;;19.97;42.33
4410;BME280;2218;51.408;7.208;2023-04-30T13:03:16;100321.19;;;19.96;42.31
4410;BME280;2218;51.408;7.208;2023-04-30T13:05:49;100316.84;;;19.95;42.39
4410;BME280;2218;51.408;7.208;2023-04-30T13:08:17;100320.41;;;19.94;42.34
4410;BME280;2218;51.408;7.208;2023-04-30T13:10:47;100308.94;;;19.95;42.23
4410;BME280;2218;51.408;7.208;2023-04-30T13:13:16;100312.31;;;19.97;42.31
4410;BME280;2218;51.408;7.208;2023-04-30T13:15:44;100305.34;;;19.96;42.18
4410;BME280;2218;51.408;7.208;2023-04-30T13:18:13;100294.78;;;19.96;42.32
4410;BME280;2218;51.408;7.208;2023-04-30T13:20:40;100295.53;;;19.98;42.28